Current Conditions
Overcast
Conditions



Pressure
1014.92 (hPa) - 29.97 (inHG)
Visibility

10.0 (km) - 6.2 (miles)
   Temperature
14  °C
57°F
9  °C
Dewpoint
72  %
 Humidity
   Wind Speed
19  km/h
10  kts
12  mph
5.4  m/s
   Wind Direction
 320°
North West
   Airport Data
LHPR
Location Győr-Pér International Airport 10 km (6.22 mi)
Metar :LHPR 291545Z AUTO 32010KT 9999 OVC028 14/09 Q1015 NOSIG
Tue 29th September 17:45 pm
   Raw Metar Info
Raw METAR is the most common format in the world for the transmission of observational weather data. It is highly standardized through the International Civil Aviation Organization (ICAO), which allows it to be understood throughout most of the world.
   API Info
Data Provided by
https://www.checkwx.com/weather/LHPR
   © Info
CSS/SVG/PHP scripts were developed by weather34.com for use in the weather34 template © 2015-2020

Guide Info provided by Metar-Wikipedia